Summersville, WV

10:28 AM EST on December 29, 2014 (GMT -0500)
KWVMTNEB2 | Change Station
CLOSE
Current Station
Personal Weather Station
Location: Mt Nebo, WV
Elevation: 2195 ft
Nearby Weather Stations

Elev 2195 ft 38.14 °N, 80.85 °W | Updated 5 seconds ago

Overcast
Overcast
34.0 °F
Feels Like 34 °F
N
0.0
Wind Variable Wind from North
Gusts 2.0 mph

Today
High -- | Low -- °F
--% Chance of Precip.
Yesterday
High -- | Low -- °F
Precip. -- in
7:39 AM 5:11 PM
First Quarter, 60% visible
Pressure 30.17 in
Visibility 0.2 miles
Clouds
Windchill 34 °F
Dew Point 34 °F
Humidity 99%
Rainfall 0.02 in
Snow Depth Not available.
UV Not available.
Pollen .10 out of 12
Air Quality Not available.
Flu Activity Not available.
METAR KBKW 291451Z AUTO 34004KT M1/4SM FG VV002 02/01 A3012 RMK AO2 SLP216 T00220011 53015

More Conditions Fewer Conditions

Pressure 30.17 in
Visibility 0.2 miles
Clouds
Windchill 34 °F
Dew Point 34 °F
Humidity 99%
Rainfall 0.02 in
Snow Depth Not available.
UV Not available.
Pollen .10 out of 12
Air Quality Not available.
Flu Activity Not available.
METAR KBKW 291451Z AUTO 34004KT M1/4SM FG VV002 02/01 A3012 RMK AO2 SLP216 T00220011 53015

More Conditions Fewer Conditions

10-Day Weather Forecast

Almanac

Astronomy

Dec. 29, 2014 Rise Set
Actual Time
Civil Twilight
Nautical Twilight
Astronomical Twilight
Moon
Length of Visible Light
Length of Day
Tomorrow will be .
, % of the Moon is Illuminated

Today's Extremes

State Highs State Lows

Community

WunderPhotos

Upload Photos

1,781,604 photos uploaded!

WunderBlogs® & News

Nearby

Air Quality

  Air Quality AQ Index Pollutant
Not available.

Snow Depth

Station Depth Elevation

Earthquake Activity

City Distance Mag. Time & Date
Minimum magnitude displayed is 2.5.

Coastal Water Temperatures

Place Temperature

Nearby Weather Stations